Terminal Aerodrome Forecast
Issued by NWS

Current Version | Previous Version | Text Only | Print | Product List | Glossary Off
Versions: 1 2 3 4 5 6 7 8 9 10 11 12 13 14 15 16 17 18 19 20

564
FTUS41 KPBZ 180558 AAA
TAFHLG
TAF AMD
KHLG 180558Z 1806/1906 26008KT 6SM -SN OVC008
      TEMPO 1806/1810 1/2SM SN FG OVC003
     FM181300 VRB05KT P6SM BKN025
     FM181900 21005KT P6SM SKC=

USA.gov is the U.S. government's official web portal to all federal, state and local government web resources and services.